Dades meteomassalio
Diari Summary for Maig 10, 2017 Units:  English    Metric   Both
« Previous Day
Next Day »
Diari Semanal Mensual Anual Personalitzat
  Maxima: Minima: Mijana:
Temperatura: TemperatureC °F 11.9 °F 17.5 °F
Rosada: DewpointC °F 10.3 °F 12.6 °F
Humitat: Humidity % 47 % 75 %
Velocitat del vent: WindSpeedKMH mph 0.0 mph 10.4 mph
Racha vent: WindSpeedGustKMH mph - -
Vent:- - SE
Pressio: PressurehPa in 1000.6 in -
Pluja: 7.1 in    
Historical Graphs
 
 
Tabular Data for Maig 10, 2017
Time Temperature Dew Point Pressure Wind Wind Speed Wind Gust Humidity Rainfall Rate (Hourly) solar Conditions
TemperatureC °F DewpointC °F PressurehPa in Calm     Humidity % HourlyPrecipMM in SolarRadiationWatts/m^2 W/m2 Conditions
00:01 14.9 °F 13.2 °F 1007.0 in ENE 6.4 mph 6.4 mph 89 % 0.0 in 0.0 W/m2 RA
00:06 14.9 °F 13.2 °F 1007.0 in ENE 1.6 mph 2.6 mph 89 % 0.0 in 0.0 W/m2 CLR
00:12 14.9 °F 13.1 °F 1006.7 in East 9.3 mph 9.3 mph 89 % 0.0 in 0.0 W/m2 CLR
00:17 14.9 °F 13.1 °F 1006.3 in ESE 11.1 mph 11.1 mph 89 % 0.0 in 0.0 W/m2 CLR
00:22 14.9 °F 13.1 °F 1006.7 in ESE 5.6 mph 5.6 mph 89 % 0.0 in 0.0 W/m2 CLR
00:27 14.8 °F 12.9 °F 1006.7 in Calm     88 % 0.0 in 0.0 W/m2 CLR
00:32 14.8 °F 12.8 °F 1006.7 in Calm     88 % 0.0 in 0.0 W/m2 CLR
00:37 14.7 °F 12.8 °F 1006.7 in Calm     88 % 0.0 in 0.0 W/m2 CLR
00:42 14.7 °F 12.7 °F 1006.3 in Calm     88 % 0.0 in 0.0 W/m2 CLR
00:47 14.6 °F 12.8 °F 1006.3 in Calm     89 % 0.0 in 0.0 W/m2 CLR
00:52 14.6 °F 12.8 °F 1006.3 in Calm     89 % 0.0 in 0.0 W/m2 CLR
00:57 14.6 °F 12.8 °F 1006.3 in Calm     89 % 0.0 in 0.0 W/m2 CLR
01:02 14.7 °F 12.7 °F 1006.3 in Calm     88 % 0.0 in 0.0 W/m2 CLR
01:07 14.7 °F 12.7 °F 1006.3 in SSW 4.8 mph 4.8 mph 88 % 0.0 in 0.0 W/m2 CLR
01:12 14.6 °F 12.4 °F 1006.3 in Calm     87 % 0.0 in 0.0 W/m2 CLR
01:17 14.6 °F 12.4 °F 1006.3 in SSE 13.0 mph 13.0 mph 87 % 0.0 in 0.0 W/m2 CLR
01:22 14.9 °F 12.3 °F 1006.3 in SSE 18.5 mph 18.5 mph 84 % 0.3 in 0.0 W/m2 RA
01:27 15.2 °F 12.1 °F 1006.3 in SSE 22.2 mph 22.2 mph 82 % 0.3 in 0.0 W/m2
01:32 15.3 °F 12.1 °F 1006.3 in SSE 17.7 mph 17.7 mph 81 % 0.3 in 0.0 W/m2 CLR
01:37 15.3 °F 11.8 °F 1006.0 in SSE 24.1 mph 24.1 mph 80 % 0.3 in 0.0 W/m2 CLR
01:42 15.5 °F 11.9 °F 1006.0 in SE 14.8 mph 14.8 mph 79 % 0.3 in 0.0 W/m2 CLR
01:47 15.6 °F 11.7 °F 1006.0 in SSE 18.5 mph 18.5 mph 78 % 0.3 in 0.0 W/m2 CLR
01:52 15.7 °F 11.4 °F 1005.6 in SSE 16.7 mph 16.7 mph 76 % 0.3 in 0.0 W/m2 CLR
01:57 15.7 °F 11.4 °F 1005.6 in SSE 13.0 mph 13.0 mph 76 % 0.3 in 0.0 W/m2 CLR
02:02 15.6 °F 11.4 °F 1005.6 in SSE 11.1 mph 11.1 mph 76 % 0.3 in 0.0 W/m2 CLR
02:07 15.6 °F 11.6 °F 1005.6 in SSE 7.4 mph 7.4 mph 77 % 0.3 in 0.0 W/m2 CLR
02:12 15.5 °F 11.5 °F 1005.6 in SE 9.3 mph 9.3 mph 77 % 0.3 in 0.0 W/m2 CLR
02:17 15.3 °F 11.3 °F 1005.6 in SSE 7.4 mph 7.4 mph 77 % 0.3 in 0.0 W/m2 CLR
02:22 15.2 °F 11.4 °F 1005.6 in SSE 5.6 mph 5.6 mph 78 % 0.0 in 0.0 W/m2 CLR
02:27 15.2 °F 11.6 °F 1005.3 in Calm     79 % 0.0 in 0.0 W/m2 CLR
02:32 15.1 °F 11.4 °F 1005.3 in SSW 5.6 mph 5.6 mph 79 % 0.0 in 0.0 W/m2 CLR
02:37 15.0 °F 11.4 °F 1005.3 in South 9.3 mph 9.3 mph 79 % 0.0 in 0.0 W/m2 CLR
02:42 15.0 °F 11.4 °F 1005.0 in ESE 7.4 mph 7.4 mph 79 % 0.0 in 0.0 W/m2 CLR
02:47 15.0 °F 11.4 °F 1005.0 in SSE 13.0 mph 13.0 mph 79 % 0.0 in 0.0 W/m2 CLR
02:52 15.0 °F 11.2 °F 1005.0 in SE 13.0 mph 13.0 mph 78 % 0.0 in 0.0 W/m2 CLR
02:57 15.0 °F 11.2 °F 1005.0 in South 11.1 mph 11.1 mph 78 % 0.0 in 0.0 W/m2 CLR
03:02 15.1 °F 11.2 °F 1005.0 in South 16.7 mph 16.7 mph 78 % 0.0 in 0.0 W/m2 CLR
03:07 15.1 °F 11.1 °F 1004.6 in SSE 7.4 mph 7.4 mph 77 % 0.0 in 0.0 W/m2 CLR
03:12 15.1 °F 11.1 °F 1004.6 in SE 8.0 mph 8.0 mph 77 % 0.0 in 0.0 W/m2 CLR
03:17 15.1 °F 10.9 °F 1004.6 in ESE 5.6 mph 5.6 mph 76 % 0.0 in 0.0 W/m2 CLR
03:22 15.1 °F 10.9 °F 1004.6 in East 3.7 mph   76 % 0.0 in 0.0 W/m2 CLR
03:27 15.0 °F 11.0 °F 1004.6 in Calm     77 % 0.0 in 0.0 W/m2 CLR
03:32 14.9 °F 10.9 °F 1004.6 in Calm     77 % 0.0 in 0.0 W/m2 CLR
03:37 14.8 °F 11.1 °F 1004.6 in Calm     78 % 0.0 in 0.0 W/m2 CLR
03:42 14.7 °F 11.1 °F 1004.6 in Calm     79 % 0.0 in 0.0 W/m2 CLR
03:47 14.6 °F 11.0 °F 1004.3 in Calm     79 % 0.0 in 0.0 W/m2 CLR
03:52 14.4 °F 11.1 °F 1004.3 in Calm     80 % 0.0 in 0.0 W/m2 CLR
03:57 14.3 °F 10.9 °F 1004.3 in Calm     80 % 0.0 in 0.0 W/m2 CLR
04:02 14.2 °F 10.8 °F 1004.3 in Calm     80 % 0.0 in 0.0 W/m2 CLR
04:07 14.2 °F 10.6 °F 1004.3 in Calm     79 % 0.0 in 0.0 W/m2 CLR
04:12 14.3 °F 10.7 °F 1004.3 in Calm     79 % 0.0 in 0.0 W/m2 CLR
04:17 14.3 °F 10.7 °F 1004.3 in Calm     79 % 0.0 in 0.0 W/m2 CLR
04:22 14.3 °F 10.9 °F 1004.3 in Calm     80 % 0.0 in 0.0 W/m2 CLR
04:27 14.1 °F 10.7 °F 1003.9 in Calm     80 % 0.0 in 0.0 W/m2 CLR
04:32 14.0 °F 10.8 °F 1003.9 in Calm     81 % 0.0 in 0.0 W/m2 CLR
04:37 13.9 °F 10.9 °F 1003.9 in Calm     82 % 0.0 in 0.0 W/m2 CLR
04:42 13.8 °F 10.8 °F 1003.9 in Calm     82 % 0.0 in 0.0 W/m2 CLR
04:47 13.7 °F 10.9 °F 1003.9 in Calm     83 % 0.0 in 0.0 W/m2 CLR
04:52 13.6 °F 10.8 °F 1003.9 in Calm     83 % 0.0 in 0.0 W/m2 CLR
04:57 13.5 °F 10.7 °F 1003.9 in Calm     83 % 0.0 in 0.0 W/m2 CLR
05:02 13.3 °F 10.7 °F 1003.9 in Calm     84 % 0.0 in 0.0 W/m2 CLR
05:07 13.3 °F 10.8 °F 1003.9 in Calm     85 % 0.0 in 0.0 W/m2 CLR
05:12 13.2 °F 10.7 °F 1003.9 in Calm     85 % 0.0 in 0.0 W/m2 CLR
05:17 13.1 °F 10.7 °F 1003.9 in Calm     85 % 0.0 in 0.0 W/m2 CLR
05:22 13.1 °F 10.8 °F 1003.9 in Calm     86 % 0.0 in 0.0 W/m2 CLR
05:27 12.9 °F 10.7 °F 1003.6 in Calm     86 % 0.0 in 0.0 W/m2 CLR
05:32 12.9 °F 10.7 °F 1003.6 in Calm     86 % 0.0 in 0.0 W/m2 CLR
05:37 12.8 °F 10.7 °F 1003.9 in Calm     87 % 0.0 in 0.0 W/m2 CLR
05:42 12.8 °F 10.7 °F 1003.9 in Calm     87 % 0.0 in 0.0 W/m2 CLR
05:47 12.7 °F 10.6 °F 1003.9 in Calm     87 % 0.0 in 0.0 W/m2 CLR
05:52 12.6 °F 10.5 °F 1003.9 in Calm     87 % 0.0 in 0.0 W/m2 CLR
05:57 12.6 °F 10.7 °F 1003.9 in Calm     88 % 0.0 in 0.0 W/m2 CLR
06:02 12.6 °F 10.6 °F 1003.9 in Calm     88 % 0.0 in 0.0 W/m2 CLR
06:07 12.5 °F 10.6 °F 1003.9 in Calm     88 % 0.0 in 0.0 W/m2 CLR
06:12 12.4 °F 10.4 °F 1003.9 in Calm     88 % 0.0 in 0.0 W/m2 CLR
06:17 12.3 °F 10.4 °F 1003.9 in Calm     88 % 0.0 in 0.0 W/m2 CLR
06:22 12.3 °F 10.5 °F 1003.6 in Calm     89 % 0.0 in 0.0 W/m2 CLR
06:27 12.2 °F 10.4 °F 1003.9 in Calm     89 % 0.0 in 0.0 W/m2 CLR
06:32 12.2 °F 10.4 °F 1003.9 in Calm     89 % 0.0 in 0.0 W/m2 CLR
06:37 12.2 °F 10.4 °F 1003.9 in Calm     89 % 0.0 in 0.0 W/m2 OVC
06:42 12.1 °F 10.3 °F 1003.9 in Calm     89 % 0.0 in 0.0 W/m2 OVC
06:47 12.1 °F 10.5 °F 1003.9 in Calm     90 % 0.0 in 0.0 W/m2 OVC
06:52 12.1 °F 10.5 °F 1003.9 in Calm     90 % 0.0 in 0.0 W/m2 OVC
06:57 12.1 °F 10.4 °F 1003.9 in Calm     90 % 0.0 in 0.0 W/m2 OVC
07:02 12.0 °F 10.4 °F 1003.9 in Calm     90 % 0.0 in 0.0 W/m2 OVC
07:07 12.0 °F 10.4 °F 1003.9 in Calm     90 % 0.0 in 5.0 W/m2 OVC
07:12 12.0 °F 10.4 °F 1003.9 in Calm     90 % 0.0 in 9.0 W/m2 BKN
07:17 12.0 °F 10.4 °F 1003.9 in Calm     90 % 0.0 in 14.0 W/m2 BKN
07:22 12.0 °F 10.4 °F 1003.9 in Calm     90 % 0.0 in 18.0 W/m2 BKN
07:27 12.0 °F 10.4 °F 1003.9 in Calm     90 % 0.0 in 25.0 W/m2 BKN
07:33 11.9 °F 10.3 °F 1004.3 in Calm     90 % 0.0 in 30.0 W/m2 BKN
07:38 11.9 °F 10.3 °F 1004.3 in Calm     90 % 0.0 in 37.0 W/m2 BKN
07:43 12.0 °F 10.4 °F 1004.3 in Calm     90 % 0.0 in 42.0 W/m2 BKN
07:48 12.1 °F 10.7 °F 1004.3 in Calm     91 % 0.0 in 51.0 W/m2 BKN
07:53 12.2 °F 10.6 °F 1004.3 in Calm     90 % 0.0 in 62.0 W/m2 SCT
07:58 12.3 °F 10.7 °F 1004.3 in Calm     90 % 0.0 in 67.0 W/m2 SCT
08:03 12.4 °F 10.8 °F 1004.3 in Calm     90 % 0.0 in 76.0 W/m2 FEW
08:08 12.5 °F 11.1 °F 1004.3 in Calm     91 % 0.0 in 77.0 W/m2 FEW
08:13 12.7 °F 11.2 °F 1004.6 in Calm     91 % 0.0 in 90.0 W/m2 FEW
08:18 12.8 °F 11.4 °F 1004.6 in Calm     91 % 0.0 in 100.0 W/m2 CLR
08:23 12.9 °F 11.5 °F 1004.6 in Calm     91 % 0.0 in 107.0 W/m2 CLR
08:28 13.1 °F 11.7 °F 1004.6 in Calm     91 % 0.0 in 109.0 W/m2 CLR
08:33 13.2 °F 11.7 °F 1004.6 in Calm     91 % 0.0 in 118.0 W/m2 CLR
08:38 13.3 °F 11.8 °F 1004.6 in Calm     91 % 0.0 in 125.0 W/m2 CLR
08:43 13.4 °F 11.9 °F 1004.6 in Calm     91 % 0.0 in 135.0 W/m2 CLR
08:48 13.4 °F 12.2 °F 1004.3 in Calm     92 % 0.0 in 142.0 W/m2 CLR
08:53 13.4 °F 12.2 °F 1004.6 in SW 3.7 mph 3.7 mph 92 % 0.0 in 155.0 W/m2 CLR
08:58 13.6 °F 12.3 °F 1004.6 in Calm     92 % 0.0 in 162.0 W/m2 CLR
09:03 13.6 °F 12.3 °F 1004.6 in Calm     92 % 0.0 in 169.0 W/m2 CLR
09:08 13.7 °F 12.4 °F 1004.6 in Calm     92 % 0.0 in 167.0 W/m2 CLR
09:13 13.8 °F 12.6 °F 1004.6 in Calm     92 % 0.0 in 193.0 W/m2 CLR
09:18 14.0 °F 12.7 °F 1004.6 in Calm     92 % 0.0 in 174.0 W/m2 CLR
09:23 14.1 °F 12.7 °F 1004.6 in Calm     91 % 0.0 in 229.0 W/m2 CLR
09:28 14.3 °F 12.8 °F 1004.6 in Calm     91 % 0.0 in 348.0 W/m2 CLR
09:33 14.6 °F 13.1 °F 1004.6 in Calm     91 % 0.0 in 220.0 W/m2 CLR
09:38 14.8 °F 13.4 °F 1004.6 in Calm     91 % 0.0 in 200.0 W/m2 CLR
09:43 15.3 °F 13.8 °F 1004.6 in Calm     91 % 0.0 in 406.0 W/m2 CLR
09:48 15.4 °F 13.8 °F 1004.6 in Calm     90 % 0.0 in 432.0 W/m2 CLR
09:53 15.8 °F 14.0 °F 1004.3 in Calm     89 % 0.0 in 436.0 W/m2 CLR
09:58 16.1 °F 13.9 °F 1004.3 in Calm     87 % 0.0 in 459.0 W/m2 CLR
10:03 16.3 °F 13.4 °F 1004.3 in Calm     83 % 0.0 in 524.0 W/m2 CLR
10:08 16.6 °F 13.4 °F 1004.6 in Calm     82 % 0.0 in 555.0 W/m2 CLR
10:13 16.8 °F 13.3 °F 1004.6 in Calm     80 % 0.0 in 601.0 W/m2 CLR
10:18 17.3 °F 13.6 °F 1004.6 in Calm     79 % 0.0 in 531.0 W/m2 CLR
10:23 17.7 °F 14.0 °F 1004.6 in Calm     79 % 0.0 in 649.0 W/m2 CLR
10:28 18.0 °F 13.9 °F 1004.3 in Calm     77 % 0.0 in 701.0 W/m2 CLR
10:33 18.2 °F 13.7 °F 1004.3 in Calm     75 % 0.0 in 717.0 W/m2 CLR
10:38 18.6 °F 14.2 °F 1004.3 in ENE 11.1 mph 11.1 mph 76 % 0.0 in 673.0 W/m2 CLR
10:43 18.9 °F 14.2 °F 1004.3 in ENE 8.0 mph 8.0 mph 74 % 0.0 in 751.0 W/m2 CLR
10:48 19.1 °F 14.1 °F 1004.6 in ENE 9.3 mph 9.3 mph 73 % 0.0 in 431.0 W/m2 CLR
10:53 19.3 °F 14.1 °F 1004.6 in Calm     72 % 0.0 in 482.0 W/m2 CLR
10:58 19.6 °F 13.9 °F 1004.3 in NNE 5.6 mph 5.6 mph 70 % 0.0 in 355.0 W/m2 CLR
11:03 19.5 °F 13.9 °F 1004.3 in NE 5.6 mph 5.6 mph 70 % 0.0 in 281.0 W/m2 CLR
11:08 19.3 °F 13.7 °F 1004.6 in Calm     70 % 0.0 in 236.0 W/m2 CLR
11:13 19.2 °F 13.8 °F 1004.3 in ENE 5.6 mph 5.6 mph 71 % 0.0 in 248.0 W/m2 CLR
11:18 19.1 °F 13.5 °F 1004.3 in NE 6.4 mph 6.4 mph 70 % 0.0 in 339.0 W/m2 CLR
11:23 19.1 °F 13.7 °F 1004.3 in NNE 5.6 mph   71 % 0.0 in 350.0 W/m2 CLR
11:28 19.4 °F 14.0 °F 1004.3 in Calm     71 % 0.0 in 406.0 W/m2 CLR
11:33 19.7 °F 13.9 °F 1004.3 in Calm     69 % 0.0 in 381.0 W/m2 CLR
11:38 19.8 °F 14.0 °F 1004.3 in East 1.9 mph   69 % 0.0 in 501.0 W/m2 CLR
11:43 20.0 °F 13.7 °F 1004.3 in ENE 9.7 mph 9.7 mph 67 % 0.0 in 367.0 W/m2 CLR
11:48 20.1 °F 13.9 °F 1004.3 in Calm     68 % 0.0 in 343.0 W/m2 CLR
11:53 20.2 °F 13.9 °F 1003.9 in East 7.4 mph 7.4 mph 67 % 0.0 in 322.0 W/m2 CLR
11:58 20.4 °F 13.7 °F 1003.9 in ENE 1.9 mph 1.9 mph 65 % 0.0 in 295.0 W/m2 CLR
12:03 20.3 °F 13.2 °F 1003.9 in ENE 5.6 mph 5.6 mph 64 % 0.0 in 255.0 W/m2 CLR
12:08 20.3 °F 13.5 °F 1003.9 in Calm     65 % 0.0 in 260.0 W/m2 CLR
12:13 20.6 °F 13.3 °F 1003.9 in Calm     63 % 0.0 in 963.0 W/m2 CLR
12:18 21.2 °F 13.6 °F 1003.9 in Calm     62 % 0.0 in 935.0 W/m2 CLR
12:23 21.7 °F 13.9 °F 1003.9 in ENE 9.7 mph 9.7 mph 61 % 0.0 in 925.0 W/m2 CLR
12:28 22.1 °F 14.4 °F 1003.9 in Calm     62 % 0.0 in 909.0 W/m2 CLR
12:33 22.3 °F 14.2 °F 1003.6 in ENE 13.0 mph 13.0 mph 60 % 0.0 in 902.0 W/m2 CLR
12:38 22.6 °F 14.4 °F 1003.6 in East 7.4 mph 7.4 mph 60 % 0.0 in 882.0 W/m2 CLR
12:43 23.0 °F 14.3 °F 1003.6 in ENE 7.4 mph 7.4 mph 58 % 0.0 in 900.0 W/m2 CLR
12:48 23.2 °F 13.9 °F 1003.6 in ESE 6.4 mph 6.4 mph 56 % 0.0 in 896.0 W/m2 CLR
12:53 23.1 °F 13.6 °F 1003.3 in East 9.3 mph 9.3 mph 55 % 0.0 in 902.0 W/m2 CLR
12:58 23.4 °F 13.3 °F 1003.3 in ENE 11.3 mph 11.3 mph 53 % 0.0 in 932.0 W/m2 CLR
13:03 23.7 °F 13.0 °F 1003.3 in ENE 16.7 mph 16.7 mph 51 % 0.0 in 928.0 W/m2 CLR
13:08 23.6 °F 13.2 °F 1003.3 in ESE 14.8 mph 14.8 mph 52 % 0.0 in 868.0 W/m2 CLR
13:13 23.7 °F 13.0 °F 1003.3 in NE 18.5 mph 18.5 mph 51 % 0.0 in 821.0 W/m2 CLR
13:18 23.9 °F 12.8 °F 1003.3 in NE 9.3 mph 9.3 mph 50 % 0.0 in 874.0 W/m2 CLR
13:23 23.9 °F 12.3 °F 1003.3 in ENE 14.8 mph 14.8 mph 48 % 0.0 in 949.0 W/m2 CLR
13:28 24.2 °F 12.8 °F 1002.9 in North 7.4 mph 7.4 mph 49 % 0.0 in 956.0 W/m2 CLR
13:33 24.3 °F 12.3 °F 1002.9 in ENE 7.4 mph 7.4 mph 47 % 0.0 in 937.0 W/m2 CLR
13:38 24.3 °F 12.6 °F 1002.9 in ESE 14.8 mph 14.8 mph 48 % 0.0 in 819.0 W/m2 CLR
13:43 24.2 °F 12.2 °F 1002.9 in SE 14.8 mph 14.8 mph 47 % 0.0 in 854.0 W/m2 CLR
13:48 23.9 °F 12.3 °F 1002.6 in ESE 11.3 mph 11.3 mph 48 % 0.0 in 758.0 W/m2 CLR
13:53 23.9 °F 13.2 °F 1002.6 in East 13.0 mph 13.0 mph 51 % 0.0 in 768.0 W/m2 CLR
13:58 24.0 °F 13.6 °F 1002.6 in SE 18.5 mph 18.5 mph 52 % 0.0 in 888.0 W/m2 CLR
14:03 23.5 °F 12.8 °F 1002.6 in East 24.1 mph 24.1 mph 51 % 0.0 in 816.0 W/m2 CLR
14:08 23.4 °F 13.0 °F 1002.6 in ESE 18.5 mph 18.5 mph 52 % 0.0 in 863.0 W/m2 CLR
14:13 23.2 °F 12.8 °F 1002.6 in ESE 20.4 mph 20.4 mph 52 % 0.0 in 863.0 W/m2 CLR
14:18 23.3 °F 13.4 °F 1002.6 in ESE 18.5 mph 18.5 mph 54 % 0.0 in 1095.0 W/m2 CLR
14:23 23.5 °F 13.1 °F 1002.6 in ESE 22.2 mph 22.2 mph 52 % 0.0 in 979.0 W/m2 CLR
14:28 23.6 °F 13.4 °F 1002.6 in ESE 20.4 mph 20.4 mph 53 % 0.0 in 997.0 W/m2 CLR
14:33 23.4 °F 13.3 °F 1002.6 in SE 18.5 mph 18.5 mph 53 % 0.0 in 937.0 W/m2 CLR
14:38 23.7 °F 13.3 °F 1002.6 in East 18.5 mph 18.5 mph 52 % 0.0 in 925.0 W/m2 CLR
14:43 23.4 °F 13.3 °F 1002.6 in SE 24.1 mph 24.1 mph 53 % 0.0 in 937.0 W/m2 CLR
14:48 23.4 °F 13.0 °F 1002.6 in ESE 24.1 mph 24.1 mph 52 % 0.0 in 889.0 W/m2 CLR
14:53 23.1 °F 13.6 °F 1002.6 in East 18.5 mph 18.5 mph 55 % 0.0 in 889.0 W/m2 CLR
14:58 23.0 °F 13.2 °F 1002.6 in SE 20.4 mph 20.4 mph 54 % 0.0 in 297.0 W/m2 CLR
15:03 22.4 °F 13.2 °F 1002.6 in SE 24.1 mph 24.1 mph 56 % 0.0 in 272.0 W/m2 CLR
15:08 21.8 °F 13.4 °F 1002.6 in SSE 29.6 mph 29.6 mph 59 % 0.0 in 332.0 W/m2 CLR
15:13 21.3 °F 13.5 °F 1002.6 in ESE 27.8 mph 27.8 mph 61 % 0.0 in 304.0 W/m2 CLR
15:18 21.1 °F 13.6 °F 1002.6 in SSE 24.1 mph 24.1 mph 62 % 0.0 in 322.0 W/m2 CLR
15:19 21.1 °F 14.1 °F 1002.6 in SSE 22.2 mph 22.2 mph 64 % 0.0 in 322.0 W/m2 CLR
15:24 21.0 °F 14.2 °F 1002.6 in SSE 22.2 mph 22.2 mph 65 % 0.0 in 888.0 W/m2 CLR
15:29 21.1 °F 14.3 °F 1002.6 in South 24.1 mph 24.1 mph 65 % 0.0 in 800.0 W/m2 CLR
15:34 20.9 °F 13.9 °F 1002.6 in SSE 29.0 mph 29.0 mph 64 % 0.0 in 947.0 W/m2 CLR
15:39 21.1 °F 14.0 °F 1002.3 in SE 27.8 mph 27.8 mph 64 % 0.0 in 881.0 W/m2 CLR
15:44 21.1 °F 14.0 °F 1002.3 in SE 20.4 mph 20.4 mph 64 % 0.0 in 844.0 W/m2 CLR
15:49 21.5 °F 13.7 °F 1002.3 in SE 29.6 mph 29.6 mph 61 % 0.0 in 861.0 W/m2 CLR
15:54 21.4 °F 13.3 °F 1001.9 in SSE 31.5 mph 31.5 mph 60 % 0.0 in 613.0 W/m2 CLR
15:59 21.7 °F 13.8 °F 1001.9 in SE 22.2 mph 22.2 mph 61 % 0.0 in 847.0 W/m2 CLR
16:04 21.6 °F 13.4 °F 1001.9 in SE 24.1 mph 24.1 mph 60 % 0.0 in 847.0 W/m2 CLR
16:09 21.6 °F 13.3 °F 1001.9 in SSE 22.5 mph 22.5 mph 59 % 0.0 in 863.0 W/m2 CLR
16:14 21.6 °F 13.7 °F 1001.9 in ESE 25.9 mph 25.9 mph 61 % 0.0 in 789.0 W/m2 CLR
16:19 21.8 °F 13.9 °F 1001.6 in ESE 25.9 mph 25.9 mph 61 % 0.0 in 773.0 W/m2 CLR
16:24 22.0 °F 13.6 °F 1001.6 in SSE 19.3 mph 19.3 mph 59 % 0.0 in 766.0 W/m2 CLR
16:29 22.3 °F 13.3 °F 1001.6 in SE 20.9 mph 20.9 mph 57 % 0.0 in 758.0 W/m2 CLR
16:34 22.2 °F 13.0 °F 1001.6 in ESE 27.8 mph 27.8 mph 56 % 0.0 in 751.0 W/m2 CLR
16:39 22.2 °F 13.2 °F 1001.6 in SE 25.7 mph 25.7 mph 57 % 0.0 in 766.0 W/m2 CLR
16:44 22.1 °F 13.2 °F 1001.6 in ESE 20.9 mph 20.9 mph 57 % 0.0 in 759.0 W/m2 CLR
16:49 22.4 °F 12.9 °F 1001.6 in SE 20.4 mph 20.4 mph 55 % 0.0 in 742.0 W/m2 CLR
16:54 22.8 °F 12.7 °F 1001.6 in SE 24.1 mph 24.1 mph 53 % 0.0 in 766.0 W/m2 CLR
16:59 22.3 °F 12.6 °F 1001.6 in SE 22.2 mph 22.2 mph 54 % 0.0 in 364.0 W/m2 CLR
17:04 22.2 °F 12.2 °F 1001.2 in SE 27.8 mph 27.8 mph 53 % 0.0 in 292.0 W/m2 CLR
17:09 22.2 °F 12.4 °F 1001.2 in SE 24.1 mph 24.1 mph 54 % 0.0 in 362.0 W/m2 CLR
17:14 22.2 °F 12.4 °F 1001.2 in SSE 27.8 mph 27.8 mph 54 % 0.0 in 336.0 W/m2 CLR
17:19 22.5 °F 12.7 °F 1001.2 in SSE 25.9 mph 25.9 mph 54 % 0.0 in 689.0 W/m2 CLR
17:24 22.9 °F 12.8 °F 1000.9 in SE 16.7 mph 16.7 mph 53 % 0.0 in 687.0 W/m2 CLR
17:29 23.3 °F 12.6 °F 1000.9 in SE 25.9 mph 25.9 mph 51 % 0.0 in 628.0 W/m2 CLR
17:34 23.3 °F 12.0 °F 1000.9 in ESE 27.8 mph 27.8 mph 49 % 0.0 in 601.0 W/m2 CLR
17:39 23.1 °F 12.1 °F 1000.9 in SSE 24.1 mph 24.1 mph 50 % 0.0 in 127.0 W/m2 CLR
17:44 23.2 °F 12.2 °F 1000.9 in SE 18.5 mph 18.5 mph 50 % 0.0 in 601.0 W/m2 CLR
17:49 23.4 °F 12.4 °F 1000.9 in South 16.7 mph 16.7 mph 50 % 0.0 in 582.0 W/m2 CLR
17:54 23.4 °F 12.1 °F 1000.9 in SE 29.6 mph 29.6 mph 49 % 0.0 in 547.0 W/m2 CLR
17:59 23.3 °F 11.7 °F 1000.6 in East 31.5 mph 31.5 mph 48 % 0.0 in 503.0 W/m2 CLR
18:04 23.2 °F 11.6 °F 1000.6 in South 24.1 mph 24.1 mph 48 % 0.0 in 485.0 W/m2 CLR
18:09 23.3 °F 12.3 °F 1000.6 in SE 20.4 mph 20.4 mph 50 % 0.0 in 473.0 W/m2 CLR
18:14 23.1 °F 12.1 °F 1000.6 in SSE 20.4 mph 20.4 mph 50 % 0.0 in 457.0 W/m2 CLR
18:19 23.1 °F 11.8 °F 1000.6 in SE 31.5 mph 31.5 mph 49 % 0.0 in 441.0 W/m2 CLR
18:24 23.1 °F 12.4 °F 1000.6 in SE 22.2 mph 22.2 mph 51 % 0.0 in 425.0 W/m2 CLR
18:29 23.1 °F 12.7 °F 1000.6 in SSE 24.1 mph 24.1 mph 52 % 0.0 in 438.0 W/m2 CLR
18:34 22.9 °F 12.5 °F 1000.6 in SSE 16.7 mph 16.7 mph 52 % 0.0 in 239.0 W/m2 CLR
18:39 22.6 °F 12.5 °F 1000.6 in South 24.1 mph 24.1 mph 53 % 0.0 in 160.0 W/m2 CLR
18:44 22.1 °F 12.7 °F 1000.6 in South 29.6 mph 29.6 mph 55 % 0.0 in 151.0 W/m2 CLR
18:49 21.9 °F 12.7 °F 1000.6 in South 22.2 mph 22.2 mph 56 % 0.0 in 118.0 W/m2 CLR
18:54 21.7 °F 13.1 °F 1000.6 in South 18.5 mph 18.5 mph 58 % 0.0 in 98.0 W/m2 CLR
18:59 21.3 °F 13.0 °F 1000.6 in SSE 22.2 mph 22.2 mph 59 % 0.0 in 90.0 W/m2 CLR
19:04 21.1 °F 13.2 °F 1000.6 in SSW 20.4 mph 20.4 mph 61 % 0.0 in 72.0 W/m2 CLR
19:09 20.7 °F 13.4 °F 1000.9 in SSE 27.8 mph 27.8 mph 63 % 0.0 in 56.0 W/m2 FEW
19:14 20.3 °F 13.6 °F 1000.9 in SSE 29.6 mph 29.6 mph 65 % 0.0 in 39.0 W/m2 SCT
19:19 20.1 °F 13.6 °F 1000.9 in SSE 29.6 mph 29.6 mph 66 % 0.0 in 21.0 W/m2 BKN
19:24 19.9 °F 13.6 °F 1000.9 in South 18.5 mph 18.5 mph 67 % 0.0 in 14.0 W/m2 BKN
19:29 19.7 °F 13.7 °F 1000.9 in SSE 18.5 mph 18.5 mph 68 % 0.0 in 9.0 W/m2 BKN
19:34 19.5 °F 13.9 °F 1001.2 in South 16.7 mph 16.7 mph 70 % 0.0 in 7.0 W/m2 BKN
19:39 19.3 °F 14.2 °F 1001.2 in South 18.5 mph 18.5 mph 72 % 0.0 in 7.0 W/m2 BKN
19:44 19.1 °F 14.4 °F 1001.6 in Calm     74 % 0.3 in 7.0 W/m2 RA
19:49 18.8 °F 14.5 °F 1001.9 in SSW 7.4 mph 7.4 mph 76 % 1.0 in 9.0 W/m2 RA
19:54 18.5 °F 14.8 °F 1001.9 in Calm     79 % 2.5 in 14.0 W/m2 RA
19:59 18.1 °F 14.6 °F 1001.6 in East 3.7 mph 3.7 mph 80 % 3.6 in 21.0 W/m2 RA
20:04 17.6 °F 14.7 °F 1001.6 in East 11.1 mph 11.1 mph 83 % 4.8 in 28.0 W/m2 RA
20:09 17.3 °F 14.7 °F 1001.6 in SE 8.0 mph 8.0 mph 85 % 4.8 in 28.0 W/m2 BKN
20:15 17.1 °F 14.7 °F 1001.2 in SE 11.3 mph 11.3 mph 86 % 4.8 in 21.0 W/m2 BKN
20:20 17.2 °F 14.6 °F 1001.2 in SE 14.8 mph 14.8 mph 85 % 4.8 in 16.0 W/m2 BKN
20:25 17.3 °F 14.7 °F 1001.2 in SE 16.7 mph 16.7 mph 85 % 4.8 in 21.0 W/m2 BKN
20:30 17.2 °F 14.8 °F 1001.2 in SE 17.7 mph 17.7 mph 86 % 4.8 in 30.0 W/m2 BKN
20:35 17.3 °F 14.4 °F 1001.2 in SE 20.4 mph 20.4 mph 83 % 4.8 in 21.0 W/m2 BKN
20:40 17.4 °F 14.3 °F 1001.2 in SSE 22.2 mph 22.2 mph 82 % 4.8 in 11.0 W/m2 BKN
20:45 17.4 °F 14.2 °F 1001.2 in SE 24.1 mph 24.1 mph 81 % 4.6 in 7.0 W/m2 BKN
20:50 17.5 °F 14.2 °F 1001.2 in SSE 18.5 mph 18.5 mph 81 % 3.8 in 0.0 W/m2 OVC
20:55 17.5 °F 14.2 °F 1001.2 in SSE 18.5 mph 18.5 mph 81 % 2.3 in 0.0 W/m2 OVC
21:00 17.6 °F 14.1 °F 1001.2 in SSE 24.1 mph 24.1 mph 80 % 1.0 in 0.0 W/m2 OVC
21:05 17.6 °F 14.1 °F 1001.6 in SE 16.7 mph 16.7 mph 80 % 0.0 in 0.0 W/m2 OVC
21:10 17.6 °F 14.1 °F 1001.6 in SSW 16.7 mph 16.7 mph 80 % 0.0 in 0.0 W/m2 OVC
21:15 17.5 °F 14.2 °F 1001.9 in SSW 16.7 mph 16.7 mph 81 % 0.0 in 0.0 W/m2 OVC
21:20 17.4 °F 14.1 °F 1001.9 in SSE 22.2 mph 22.2 mph 81 % 0.3 in 0.0 W/m2 RA
21:25 17.1 °F 14.2 °F 1001.9 in South 18.5 mph 18.5 mph 83 % 0.5 in 0.0 W/m2 RA
21:30 16.8 °F 14.2 °F 1001.9 in SSE 18.5 mph 18.5 mph 85 % 1.0 in 0.0 W/m2 RA
21:35 16.6 °F 14.3 °F 1001.9 in South 16.7 mph 16.7 mph 86 % 1.5 in 0.0 W/m2 RA
21:40 16.5 °F 14.2 °F 1001.9 in South 9.3 mph 9.3 mph 86 % 1.8 in 0.0 W/m2 RA
21:45 16.4 °F 14.2 °F 1001.6 in SE 11.3 mph 11.3 mph 87 % 2.0 in 0.0 W/m2 RA
21:50 16.3 °F 14.2 °F 1001.6 in SE 14.8 mph 14.8 mph 87 % 2.0 in 0.0 W/m2
21:55 16.3 °F 14.2 °F 1001.6 in SE 16.7 mph 16.7 mph 87 % 2.0 in 0.0 W/m2 CLR
22:00 16.3 °F 14.1 °F 1001.6 in SE 14.8 mph 14.8 mph 87 % 2.0 in 0.0 W/m2 CLR
22:01 16.3 °F 14.2 °F 1001.6 in South 14.8 mph 14.8 mph 87 % 2.0 in 0.0 W/m2 CLR
22:06 16.3 °F 14.2 °F 1001.6 in SE 14.8 mph 14.8 mph 87 % 2.0 in 0.0 W/m2 CLR
22:11 16.3 °F 14.2 °F 1001.6 in SSE 17.7 mph 17.7 mph 87 % 2.0 in 0.0 W/m2 CLR
22:16 16.4 °F 14.4 °F 1001.6 in SSE 18.5 mph 18.5 mph 88 % 1.8 in 0.0 W/m2 CLR
22:21 16.4 °F 14.2 °F 1001.6 in SSE 16.7 mph 16.7 mph 87 % 1.8 in 0.0 W/m2 CLR
22:26 16.3 °F 14.2 °F 1001.6 in SE 18.5 mph 18.5 mph 87 % 1.5 in 0.0 W/m2 CLR
22:31 16.3 °F 14.2 °F 1001.6 in SSE 18.5 mph 18.5 mph 87 % 1.0 in 0.0 W/m2 CLR
22:36 16.4 °F 14.2 °F 1001.6 in SE 16.7 mph 16.7 mph 87 % 0.5 in 0.0 W/m2 CLR
22:41 16.4 °F 14.2 °F 1001.2 in SSE 17.7 mph 17.7 mph 87 % 0.3 in 0.0 W/m2 CLR
22:46 16.4 °F 14.2 °F 1001.6 in SSE 16.7 mph 16.7 mph 87 % 0.0 in 0.0 W/m2 CLR
22:51 16.4 °F 14.1 °F 1001.2 in SSE 20.4 mph 20.4 mph 86 % 0.0 in 0.0 W/m2 CLR
22:56 16.6 °F 14.0 °F 1001.2 in SSE 20.4 mph 20.4 mph 85 % 0.0 in 0.0 W/m2 CLR
23:01 16.7 °F 13.9 °F 1001.6 in SSE 22.2 mph 22.2 mph 84 % 0.0 in 0.0 W/m2 CLR
23:06 16.6 °F 14.1 °F 1001.2 in SSE 18.5 mph 18.5 mph 85 % 0.0 in 0.0 W/m2 CLR
23:11 16.5 °F 13.9 °F 1001.2 in SSE 14.8 mph 14.8 mph 85 % 0.0 in 0.0 W/m2 CLR
23:16 16.4 °F 13.8 °F 1001.2 in SE 14.8 mph 14.8 mph 85 % 0.0 in 0.0 W/m2 CLR
23:21 16.3 °F 13.9 °F 1001.2 in SE 16.7 mph 16.7 mph 86 % 0.0 in 0.0 W/m2 CLR
23:26 16.2 °F 13.9 °F 1001.2 in ESE 13.0 mph 13.0 mph 86 % 0.0 in 0.0 W/m2 CLR
23:31 16.2 °F 13.8 °F 1000.9 in ESE 8.0 mph 8.0 mph 86 % 0.0 in 0.0 W/m2 CLR
23:36 16.2 °F 13.8 °F 1000.9 in ESE 11.1 mph 11.1 mph 86 % 0.0 in 0.0 W/m2 CLR
23:41 16.2 °F 13.8 °F 1000.9 in SSE 11.1 mph 11.1 mph 86 % 0.0 in 0.0 W/m2 CLR
23:47 16.2 °F 13.9 °F 1000.9 in ESE 5.6 mph 5.6 mph 86 % 0.0 in 0.0 W/m2 CLR
23:52 16.2 °F 13.7 °F 1000.9 in Calm     85 % 0.0 in 0.0 W/m2 CLR
23:57 16.3 °F 13.8 °F 1000.9 in Calm     85 % 0.0 in 0.0 W/m2 CLR
Lo Temps de Massalio
Compliments of Weather Underground - 1.25 mb